createdAt,value
2018-07-21T00:00:08.825Z,21.78
2018-07-21T00:01:14.357Z,21.73
2018-07-21T00:02:19.563Z,21.64
2018-07-21T00:03:24.969Z,21.61
2018-07-21T00:04:29.551Z,21.55
2018-07-21T00:05:35.906Z,21.51
2018-07-21T00:06:41.639Z,21.44
2018-07-21T00:07:47.349Z,21.41
2018-07-21T00:08:53.129Z,21.38
2018-07-21T00:10:06.078Z,21.36
2018-07-21T00:11:12.080Z,21.35
2018-07-21T00:12:19.140Z,21.18
2018-07-21T00:13:23.898Z,21.07
2018-07-21T00:14:29.173Z,20.99
2018-07-21T00:15:33.910Z,20.90
2018-07-21T00:16:40.008Z,20.87
2018-07-21T00:17:46.146Z,20.85
2018-07-21T00:18:51.449Z,20.85
2018-07-21T00:19:56.407Z,20.83
2018-07-21T00:21:03.651Z,20.79
2018-07-21T00:22:09.461Z,20.78
2018-07-21T00:23:14.223Z,20.76
2018-07-21T00:24:19.007Z,20.80
2018-07-21T00:25:24.386Z,20.89
2018-07-21T00:26:34.892Z,20.97
2018-07-21T00:27:42.611Z,21.06
2018-07-21T00:28:47.506Z,21.05
2018-07-21T00:29:52.434Z,21.03
2018-07-21T00:30:58.393Z,20.92
2018-07-21T00:32:04.367Z,20.83
2018-07-21T00:33:09.115Z,20.83
2018-07-21T00:34:14.070Z,20.90
2018-07-21T00:35:18.757Z,21.05
2018-07-21T00:36:24.575Z,21.17
2018-07-21T00:37:37.363Z,21.17
2018-07-21T00:38:45.792Z,21.12
2018-07-21T00:39:51.048Z,21.12
2018-07-21T00:40:56.998Z,21.16
2018-07-21T00:42:02.323Z,21.23
2018-07-21T00:43:07.036Z,21.25
2018-07-21T00:44:12.754Z,21.25
2018-07-21T00:45:18.079Z,21.22
2018-07-21T00:46:25.862Z,21.19
2018-07-21T00:47:30.717Z,21.20
2018-07-21T00:48:35.499Z,21.20
2018-07-21T00:49:40.232Z,21.23
2018-07-21T00:50:45.976Z,21.25
2018-07-21T00:51:51.362Z,21.20
2018-07-21T00:52:56.700Z,21.25
2018-07-21T00:54:02.211Z,21.40
2018-07-21T00:55:07.957Z,21.48
2018-07-21T00:56:12.834Z,21.45
2018-07-21T00:57:17.592Z,21.44
2018-07-21T00:58:23.583Z,21.42
2018-07-21T00:59:28.558Z,21.40
2018-07-21T01:00:35.044Z,21.35
2018-07-21T01:01:40.349Z,21.36
2018-07-21T01:02:45.221Z,21.37
2018-07-21T01:03:51.477Z,21.36
2018-07-21T01:04:56.238Z,21.33
2018-07-21T01:06:01.318Z,21.32
2018-07-21T01:07:07.297Z,21.26
2018-07-21T01:08:12.055Z,21.28
2018-07-21T01:09:16.742Z,21.32
2018-07-21T01:10:21.606Z,21.36
2018-07-21T01:11:27.227Z,21.36
2018-07-21T01:12:32.246Z,21.35
2018-07-21T01:13:36.949Z,21.11
2018-07-21T01:14:41.678Z,21.02
2018-07-21T01:15:46.592Z,20.86
2018-07-21T01:16:51.514Z,20.89
2018-07-21T01:17:56.158Z,20.84
2018-07-21T01:19:01.200Z,20.79
2018-07-21T01:20:06.304Z,20.74
2018-07-21T01:21:11.125Z,20.74
2018-07-21T01:22:16.808Z,20.83
2018-07-21T01:23:21.520Z,20.72
2018-07-21T01:24:26.130Z,20.75
2018-07-21T01:25:31.035Z,20.86
2018-07-21T01:26:35.642Z,20.93
2018-07-21T01:27:40.279Z,20.96
2018-07-21T01:28:45.044Z,20.94
2018-07-21T01:29:49.669Z,20.96
2018-07-21T01:30:54.735Z,20.96
2018-07-21T01:32:00.166Z,21.00
2018-07-21T01:33:05.425Z,21.05
2018-07-21T01:34:10.676Z,21.00
2018-07-21T01:35:16.160Z,20.94
2018-07-21T01:36:20.742Z,20.59
2018-07-21T01:37:25.952Z,20.64
2018-07-21T01:38:31.033Z,20.71
2018-07-21T01:39:35.668Z,20.77
2018-07-21T01:40:40.227Z,20.84
2018-07-21T01:41:44.912Z,20.87
2018-07-21T01:42:49.593Z,20.89
2018-07-21T01:43:56.280Z,20.92
2018-07-21T01:45:04.038Z,20.91
2018-07-21T01:46:09.677Z,20.90
2018-07-21T01:47:16.466Z,20.91
2018-07-21T01:48:22.284Z,20.89
2018-07-21T01:49:28.235Z,20.83
2018-07-21T01:50:35.136Z,20.77
2018-07-21T01:51:41.626Z,20.77
2018-07-21T01:52:49.096Z,20.78
2018-07-21T01:53:55.021Z,20.72
2018-07-21T01:55:00.779Z,20.71
2018-07-21T01:56:08.568Z,20.76
2018-07-21T01:57:15.345Z,20.75
2018-07-21T01:58:20.520Z,20.69
2018-07-21T01:59:25.254Z,20.55
2018-07-21T02:00:29.956Z,20.53
2018-07-21T02:01:34.810Z,20.49
2018-07-21T02:02:39.509Z,20.42
2018-07-21T02:03:46.461Z,20.38
2018-07-21T02:04:51.087Z,20.39
2018-07-21T02:05:55.756Z,20.31
2018-07-21T02:07:00.353Z,20.18
2018-07-21T02:08:04.965Z,20.12
2018-07-21T02:09:10.615Z,20.05
2018-07-21T02:10:15.771Z,20.01
2018-07-21T02:11:20.857Z,19.96
2018-07-21T02:12:25.978Z,19.87
2018-07-21T02:13:30.596Z,19.92
2018-07-21T02:14:36.031Z,19.91
2018-07-21T02:15:40.697Z,19.89
2018-07-21T02:16:45.715Z,19.84
2018-07-21T02:17:50.411Z,19.82
2018-07-21T02:18:55.145Z,19.77
2018-07-21T02:19:59.805Z,19.78
2018-07-21T02:21:05.049Z,19.85
2018-07-21T02:22:10.330Z,19.91
2018-07-21T02:23:15.716Z,19.94
2018-07-21T02:24:20.473Z,19.96
2018-07-21T02:25:25.698Z,19.96
2018-07-21T02:26:30.726Z,19.88
2018-07-21T02:27:35.492Z,19.83
2018-07-21T02:28:40.169Z,19.87
2018-07-21T02:29:45.406Z,19.80
2018-07-21T02:30:50.027Z,19.77
2018-07-21T02:31:55.340Z,19.56
2018-07-21T02:32:59.938Z,19.54
2018-07-21T02:34:04.506Z,19.46
2018-07-21T02:35:09.209Z,19.29
2018-07-21T02:36:14.071Z,19.11
2018-07-21T02:37:18.684Z,19.11
2018-07-21T02:38:23.324Z,19.07
2018-07-21T02:39:27.985Z,18.90
2018-07-21T02:40:32.540Z,18.98
2018-07-21T02:41:37.150Z,19.00
2018-07-21T02:42:42.053Z,19.09
2018-07-21T02:43:46.921Z,19.17
2018-07-21T02:44:51.568Z,19.28
2018-07-21T02:45:56.226Z,19.39
2018-07-21T02:47:00.798Z,19.25
2018-07-21T02:48:05.604Z,19.07
2018-07-21T02:49:10.640Z,19.00
2018-07-21T02:50:15.221Z,18.98
2018-07-21T02:51:19.785Z,18.91
2018-07-21T02:52:24.425Z,18.87
2018-07-21T02:53:29.041Z,18.81
2018-07-21T02:54:33.637Z,18.76
2018-07-21T02:55:38.482Z,18.68
2018-07-21T02:56:43.730Z,18.61
2018-07-21T02:57:49.382Z,18.64
2018-07-21T02:58:55.289Z,18.69
2018-07-21T02:59:59.984Z,18.56
2018-07-21T03:01:05.476Z,18.52
2018-07-21T03:02:10.623Z,18.56
2018-07-21T03:03:20.175Z,18.71
2018-07-21T03:04:26.761Z,18.76
2018-07-21T03:05:32.344Z,19.03
2018-07-21T03:06:38.103Z,19.13
2018-07-21T03:07:43.525Z,19.21
2018-07-21T03:08:48.703Z,19.18
2018-07-21T03:09:53.697Z,19.08
2018-07-21T03:10:59.105Z,19.11
2018-07-21T03:12:04.535Z,19.24
2018-07-21T03:13:10.418Z,19.30
2018-07-21T03:14:15.965Z,19.31
2018-07-21T03:15:22.095Z,19.28
2018-07-21T03:16:26.854Z,19.37
2018-07-21T03:17:31.772Z,19.41
2018-07-21T03:18:36.690Z,19.52
2018-07-21T03:19:43.441Z,19.55
2018-07-21T03:20:48.671Z,19.51
2018-07-21T03:21:53.730Z,19.57
2018-07-21T03:22:59.668Z,19.65
2018-07-21T03:24:04.694Z,19.69
2018-07-21T03:25:09.788Z,19.66
2018-07-21T03:26:14.568Z,19.61
2018-07-21T03:27:19.441Z,19.59
2018-07-21T03:28:25.032Z,19.62
2018-07-21T03:29:30.643Z,19.58
2018-07-21T03:30:35.710Z,19.40
2018-07-21T03:31:40.383Z,19.33
2018-07-21T03:32:45.140Z,19.27
2018-07-21T03:33:49.851Z,19.18
2018-07-21T03:34:55.053Z,19.20
2018-07-21T03:35:59.737Z,19.17
2018-07-21T03:37:04.486Z,19.25
2018-07-21T03:38:09.189Z,19.30
2018-07-21T03:39:13.913Z,19.09
2018-07-21T03:40:18.555Z,18.88
2018-07-21T03:41:23.696Z,19.09
2018-07-21T03:42:28.407Z,19.24
2018-07-21T03:43:33.140Z,19.39
2018-07-21T03:44:37.831Z,19.45
2018-07-21T03:45:42.609Z,19.48
2018-07-21T03:46:47.348Z,19.51
2018-07-21T03:47:52.550Z,19.58
2018-07-21T03:48:57.211Z,19.62
2018-07-21T03:50:02.507Z,19.51
2018-07-21T03:51:07.348Z,19.50
2018-07-21T03:52:12.538Z,19.54
2018-07-21T03:53:18.134Z,19.60
2018-07-21T03:54:23.406Z,19.63
2018-07-21T03:55:28.147Z,19.40
2018-07-21T03:56:33.066Z,19.48
2018-07-21T03:57:38.284Z,19.57
2018-07-21T03:58:43.821Z,19.61
2018-07-21T03:59:48.783Z,19.51
2018-07-21T04:00:53.898Z,19.52
2018-07-21T04:01:58.632Z,19.64
2018-07-21T04:03:04.701Z,19.69
2018-07-21T04:04:10.645Z,19.59
2018-07-21T04:05:16.161Z,19.54
2018-07-21T04:06:20.924Z,19.52
2018-07-21T04:07:26.679Z,19.50
2018-07-21T04:08:34.024Z,19.48
2018-07-21T04:09:38.594Z,19.48
2018-07-21T04:10:43.183Z,19.49
2018-07-21T04:11:48.772Z,19.51
2018-07-21T04:12:53.379Z,19.54
2018-07-21T04:13:59.931Z,19.51
2018-07-21T04:15:04.559Z,19.47
2018-07-21T04:16:10.566Z,19.55
2018-07-21T04:17:25.597Z,19.22
2018-07-21T04:18:31.296Z,19.04
2018-07-21T04:19:36.246Z,18.85
2018-07-21T04:20:42.506Z,18.89
2018-07-21T04:21:48.084Z,19.14
2018-07-21T04:22:53.925Z,19.39
2018-07-21T04:23:59.294Z,19.64
2018-07-21T04:25:03.996Z,19.73
2018-07-21T04:26:08.519Z,19.74
2018-07-21T04:27:14.021Z,19.77
2018-07-21T04:28:24.425Z,19.86
2018-07-21T04:29:30.200Z,19.94
2018-07-21T04:30:35.443Z,19.84
2018-07-21T04:31:40.421Z,19.76
2018-07-21T04:32:56.381Z,19.75
2018-07-21T04:34:02.980Z,19.78
2018-07-21T04:35:12.725Z,19.79
2018-07-21T04:36:19.448Z,19.53
2018-07-21T04:37:25.314Z,18.67
2018-07-21T04:38:32.134Z,18.11
2018-07-21T04:41:20.311Z,17.72
2018-07-21T04:42:25.270Z,17.79
2018-07-21T04:43:30.214Z,17.57
2018-07-21T04:44:36.142Z,17.65
2018-07-21T04:45:43.633Z,17.42
2018-07-21T04:47:02.308Z,17.35
2018-07-21T04:48:07.761Z,17.31
2018-07-21T04:49:14.907Z,17.39
2018-07-21T04:50:34.965Z,17.26
2018-07-21T04:51:41.566Z,17.38
2018-07-21T04:52:56.379Z,17.29
2018-07-21T04:54:08.976Z,17.25
2018-07-21T04:56:36.803Z,17.48
2018-07-21T04:57:54.416Z,17.49
2018-07-21T04:59:00.419Z,17.56
2018-07-21T05:00:05.551Z,17.51
2018-07-21T05:01:10.513Z,17.54
2018-07-21T05:02:20.299Z,17.71
2018-07-21T05:03:25.818Z,17.85
2018-07-21T05:04:31.739Z,17.97
2018-07-21T05:06:09.457Z,18.08
2018-07-21T05:07:16.180Z,18.15
2018-07-21T05:08:22.215Z,18.25
2018-07-21T05:09:38.127Z,18.41
2018-07-21T05:10:44.662Z,17.86
2018-07-21T05:11:50.319Z,17.69
2018-07-21T05:12:59.486Z,17.68
2018-07-21T05:14:05.569Z,17.87
2018-07-21T05:15:21.269Z,17.82
2018-07-21T05:16:26.937Z,17.86
2018-07-21T05:18:49.785Z,17.78
2018-07-21T05:19:54.796Z,17.79
2018-07-21T05:21:00.516Z,17.78
2018-07-21T05:22:06.908Z,17.76
2018-07-21T05:23:35.333Z,17.93
2018-07-21T05:24:55.822Z,17.86
2018-07-21T05:26:00.674Z,17.77
2018-07-21T05:27:05.693Z,17.86
2018-07-21T05:28:10.451Z,17.87
2018-07-21T05:29:17.193Z,17.90
2018-07-21T05:30:31.106Z,17.89
2018-07-21T05:31:37.428Z,17.93
2018-07-21T05:37:42.252Z,18.03
2018-07-21T05:38:48.650Z,18.18
2018-07-21T05:40:25.747Z,18.10
2018-07-21T05:41:32.319Z,18.14
2018-07-21T05:44:32.742Z,18.33
2018-07-21T05:45:44.236Z,18.30
2018-07-21T05:46:49.677Z,18.39
2018-07-21T05:48:00.334Z,18.50
2018-07-21T05:50:36.153Z,18.60
2018-07-21T05:51:42.232Z,18.56
2018-07-21T05:52:48.298Z,18.47
2018-07-21T05:53:54.295Z,18.38
2018-07-21T05:55:01.008Z,18.31
2018-07-21T05:56:09.748Z,18.28
2018-07-21T05:57:18.168Z,18.36
2018-07-21T05:58:30.889Z,18.39
2018-07-21T05:59:37.844Z,18.17
2018-07-21T06:00:56.035Z,17.54
2018-07-21T06:03:34.297Z,17.74
2018-07-21T06:04:41.319Z,17.33
2018-07-21T06:05:46.180Z,17.17
2018-07-21T06:06:52.476Z,17.15
2018-07-21T06:07:59.106Z,17.22
2018-07-21T06:09:04.925Z,17.20
2018-07-21T06:11:31.789Z,17.80
2018-07-21T06:14:02.417Z,18.03
2018-07-21T06:15:07.666Z,18.19
2018-07-21T06:16:20.485Z,18.16
2018-07-21T06:17:29.066Z,18.14
2018-07-21T06:21:16.058Z,17.99
2018-07-21T06:23:45.072Z,18.08
2018-07-21T06:28:19.182Z,18.16
2018-07-21T06:29:39.217Z,18.26
2018-07-21T06:32:14.054Z,18.02
2018-07-21T06:33:18.773Z,18.02
2018-07-21T06:34:25.651Z,18.12
2018-07-21T06:35:30.538Z,17.89
2018-07-21T06:36:40.369Z,17.45
2018-07-21T06:37:45.193Z,17.41
2018-07-21T06:38:56.778Z,17.28
2018-07-21T06:40:02.644Z,17.43
2018-07-21T06:41:09.388Z,17.52
2018-07-21T06:42:17.271Z,17.72
2018-07-21T06:43:21.921Z,17.85
2018-07-21T06:44:32.610Z,17.91
2018-07-21T06:45:46.749Z,18.02
2018-07-21T06:46:52.173Z,18.16
2018-07-21T06:49:26.872Z,18.35
2018-07-21T06:51:00.984Z,18.35
2018-07-21T06:52:13.421Z,18.44
2018-07-21T06:53:28.736Z,18.36
2018-07-21T06:54:49.301Z,18.47
2018-07-21T06:55:57.111Z,18.55
2018-07-21T06:57:02.740Z,18.63
2018-07-21T06:58:08.521Z,18.68
2018-07-21T06:59:16.196Z,18.64
2018-07-21T07:00:29.204Z,18.59
2018-07-21T07:01:35.238Z,18.47
2018-07-21T07:02:41.139Z,18.59
2018-07-21T07:03:49.804Z,18.50
2018-07-21T07:04:54.834Z,18.25
2018-07-21T07:06:03.424Z,18.29
2018-07-21T07:07:12.563Z,18.41
2018-07-21T07:08:20.747Z,18.53
2018-07-21T07:09:26.071Z,18.50
2018-07-21T07:10:30.878Z,18.54
2018-07-21T07:11:36.224Z,18.64
2018-07-21T07:12:41.434Z,18.64
2018-07-21T07:13:57.644Z,18.59
2018-07-21T07:15:03.223Z,18.48
2018-07-21T07:16:08.126Z,18.49
2018-07-21T07:17:12.895Z,18.62
2018-07-21T07:18:17.916Z,18.70
2018-07-21T07:19:22.914Z,18.79
2018-07-21T07:20:27.977Z,18.85
2018-07-21T07:21:33.952Z,18.86
2018-07-21T07:22:38.721Z,18.90
2018-07-21T07:23:44.994Z,18.89
2018-07-21T07:24:50.297Z,18.93
2018-07-21T07:26:05.126Z,18.82
2018-07-21T07:28:21.984Z,18.80
2018-07-21T07:29:28.197Z,18.90
2018-07-21T07:30:35.862Z,18.77
2018-07-21T07:31:48.030Z,18.25
2018-07-21T07:32:52.939Z,18.09
2018-07-21T07:34:03.770Z,18.03
2018-07-21T07:35:21.505Z,18.16
2018-07-21T07:36:27.741Z,18.16
2018-07-21T07:37:34.710Z,18.26
2018-07-21T07:38:45.293Z,18.22
2018-07-21T07:39:51.452Z,18.11
2018-07-21T07:40:59.919Z,18.11
2018-07-21T07:42:05.283Z,17.94
2018-07-21T07:43:10.508Z,17.95
2018-07-21T07:44:16.531Z,18.04
2018-07-21T07:45:22.341Z,17.81
2018-07-21T07:46:27.147Z,17.81
2018-07-21T07:47:35.790Z,18.13
2018-07-21T07:48:40.484Z,18.35
2018-07-21T07:49:54.378Z,18.52
2018-07-21T07:50:59.108Z,18.61
2018-07-21T07:52:03.842Z,18.47
2018-07-21T07:53:08.451Z,18.43
2018-07-21T07:54:32.734Z,18.39
2018-07-21T07:55:37.384Z,18.50
2018-07-21T07:56:42.377Z,18.61
2018-07-21T07:57:50.441Z,18.86
2018-07-21T07:59:08.593Z,19.00
2018-07-21T08:00:15.680Z,18.62
2018-07-21T08:01:21.719Z,18.65
2018-07-21T08:02:26.796Z,18.60
2018-07-21T08:03:32.123Z,18.53
2018-07-21T08:04:37.354Z,18.59
2018-07-21T08:05:42.393Z,18.68
2018-07-21T08:06:47.904Z,18.82
2018-07-21T08:07:55.784Z,18.94
2018-07-21T08:09:00.741Z,19.04
2018-07-21T08:10:05.635Z,18.74
2018-07-21T08:11:10.729Z,18.69
2018-07-21T08:12:15.338Z,18.83
2018-07-21T08:13:21.399Z,19.07
2018-07-21T08:14:26.199Z,19.23
2018-07-21T08:15:31.987Z,19.28
2018-07-21T08:16:45.972Z,19.21
2018-07-21T08:17:51.161Z,19.04
2018-07-21T08:18:56.011Z,18.94
2018-07-21T08:20:01.196Z,18.97
2018-07-21T08:21:06.353Z,18.83
2018-07-21T08:22:11.133Z,18.91
2018-07-21T08:23:17.111Z,18.90
2018-07-21T08:24:21.726Z,18.86
2018-07-21T08:25:26.978Z,18.71
2018-07-21T08:26:37.115Z,18.61
2018-07-21T08:27:48.919Z,18.56
2018-07-21T08:29:00.649Z,18.74
2018-07-21T08:30:06.483Z,19.00
2018-07-21T08:31:15.568Z,19.25
2018-07-21T08:32:20.308Z,19.40
2018-07-21T08:33:27.440Z,19.61
2018-07-21T08:34:32.108Z,19.68
2018-07-21T08:35:40.164Z,19.68
2018-07-21T08:36:44.894Z,19.60
2018-07-21T08:37:49.535Z,19.64
2018-07-21T08:38:54.163Z,19.74
2018-07-21T08:39:59.443Z,19.68
2018-07-21T08:41:04.099Z,19.50
2018-07-21T08:42:08.707Z,19.32
2018-07-21T08:43:13.344Z,19.33
2018-07-21T08:44:19.795Z,19.52
2018-07-21T08:45:24.728Z,19.74
2018-07-21T08:46:29.768Z,19.81
2018-07-21T08:47:34.830Z,19.90
2018-07-21T08:48:40.250Z,20.02
2018-07-21T08:49:45.891Z,20.07
2018-07-21T08:50:50.457Z,20.03
2018-07-21T08:51:56.368Z,19.80
2018-07-21T08:53:01.150Z,19.80
2018-07-21T08:54:06.797Z,19.94
2018-07-21T08:55:11.490Z,20.09
2018-07-21T08:56:16.181Z,20.08
2018-07-21T08:57:20.877Z,20.15
2018-07-21T08:58:27.305Z,20.07
2018-07-21T08:59:32.107Z,20.09
2018-07-21T09:00:38.284Z,20.30
2018-07-21T09:01:42.875Z,20.30
2018-07-21T09:02:51.587Z,20.15
2018-07-21T09:03:56.369Z,19.99
2018-07-21T09:05:01.760Z,20.01
2018-07-21T09:06:07.267Z,19.87
2018-07-21T09:07:11.952Z,19.87
2018-07-21T09:08:16.696Z,19.95
2018-07-21T09:09:21.485Z,20.10
2018-07-21T09:10:37.260Z,20.29
2018-07-21T09:11:42.575Z,20.55
2018-07-21T09:12:48.034Z,20.58
2018-07-21T09:13:53.308Z,20.58
2018-07-21T09:14:58.361Z,20.52
2018-07-21T09:16:03.501Z,20.36
2018-07-21T09:17:08.427Z,19.99
2018-07-21T09:18:13.650Z,19.74
2018-07-21T09:19:23.176Z,19.45
2018-07-21T09:20:28.541Z,19.43
2018-07-21T09:21:33.257Z,19.52
2018-07-21T09:22:37.820Z,19.91
2018-07-21T09:23:44.020Z,20.27
2018-07-21T09:24:49.687Z,20.28
2018-07-21T09:25:56.372Z,19.95
2018-07-21T09:27:04.185Z,19.57
2018-07-21T09:28:10.450Z,19.37
2018-07-21T09:29:16.023Z,19.55
2018-07-21T09:30:24.955Z,18.99
2018-07-21T09:32:58.638Z,19.33
2018-07-21T09:34:06.600Z,19.60
2018-07-21T09:35:15.386Z,19.83
2018-07-21T09:36:22.226Z,20.07
2018-07-21T09:37:27.141Z,20.30
2018-07-21T09:38:31.973Z,20.56
2018-07-21T09:39:36.771Z,20.86
2018-07-21T09:40:41.639Z,20.92
2018-07-21T09:41:47.514Z,20.66
2018-07-21T09:42:53.033Z,20.54
2018-07-21T09:43:57.741Z,20.36
2018-07-21T09:45:09.128Z,20.32
2018-07-21T09:46:15.465Z,20.36
2018-07-21T09:47:21.914Z,20.07
2018-07-21T09:48:28.260Z,20.18
2018-07-21T09:49:36.156Z,20.33
2018-07-21T09:50:43.034Z,20.40
2018-07-21T09:51:47.927Z,20.62
2018-07-21T09:52:52.645Z,20.82
2018-07-21T09:54:01.402Z,20.85
2018-07-21T09:55:10.154Z,21.00
2018-07-21T09:56:14.911Z,20.89
2018-07-21T09:57:19.600Z,21.19
2018-07-21T09:58:26.517Z,21.60
2018-07-21T09:59:31.327Z,21.86
2018-07-21T10:00:43.339Z,21.95
2018-07-21T10:01:49.065Z,22.04
2018-07-21T10:02:57.647Z,21.82
2018-07-21T10:04:03.234Z,21.57
2018-07-21T10:05:08.356Z,21.22
2018-07-21T10:06:13.733Z,21.04
2018-07-21T10:07:19.897Z,20.32
2018-07-21T10:08:27.886Z,20.33
2018-07-21T10:09:33.719Z,20.50
2018-07-21T10:10:40.406Z,21.05
2018-07-21T10:11:46.122Z,21.66
2018-07-21T10:12:50.864Z,22.03
2018-07-21T10:13:57.792Z,21.87
2018-07-21T10:15:03.095Z,21.90
2018-07-21T10:16:08.150Z,22.11
2018-07-21T10:17:13.871Z,22.33
2018-07-21T10:18:19.671Z,22.53
2018-07-21T10:19:27.060Z,22.60
2018-07-21T10:20:33.435Z,22.73
2018-07-21T10:21:39.126Z,22.45
2018-07-21T10:22:43.883Z,22.59
2018-07-21T10:23:49.619Z,22.57
2018-07-21T10:25:00.397Z,22.32
2018-07-21T10:26:10.109Z,21.98
2018-07-21T10:27:18.800Z,21.58
2018-07-21T10:28:28.753Z,21.29
2018-07-21T10:29:33.461Z,21.53
2018-07-21T10:30:38.576Z,21.85
2018-07-21T10:31:44.421Z,22.15
2018-07-21T10:32:49.421Z,22.24
2018-07-21T10:33:54.771Z,22.40
2018-07-21T10:34:59.578Z,22.65
2018-07-21T10:36:06.033Z,22.33
2018-07-21T10:37:11.717Z,22.51
2018-07-21T10:38:16.428Z,22.28
2018-07-21T10:39:23.092Z,22.07
2018-07-21T10:40:28.313Z,22.56
2018-07-21T10:41:36.930Z,22.33
2018-07-21T10:42:41.727Z,22.49
2018-07-21T10:43:48.026Z,22.43
2018-07-21T10:44:55.195Z,21.73
2018-07-21T10:46:02.813Z,21.79
2018-07-21T10:47:29.326Z,22.04
2018-07-21T10:48:38.689Z,22.19
2018-07-21T10:49:43.577Z,22.48
2018-07-21T10:50:49.038Z,22.26
2018-07-21T10:51:55.761Z,22.84
2018-07-21T10:53:01.328Z,22.90
2018-07-21T10:55:35.896Z,22.44
2018-07-21T10:56:41.823Z,21.70
2018-07-21T16:02:21.336Z,23.98
2018-07-21T16:03:27.012Z,24.02
2018-07-21T16:04:32.115Z,24.10
2018-07-21T16:05:37.269Z,24.14
2018-07-21T16:06:42.302Z,24.24
2018-07-21T16:07:59.384Z,24.28
2018-07-21T16:09:06.216Z,24.36
2018-07-21T16:10:10.901Z,24.15
2018-07-21T16:11:29.725Z,24.18
2018-07-21T16:12:34.341Z,24.11
2018-07-21T16:13:39.005Z,24.04
2018-07-21T16:14:45.032Z,24.09
2018-07-21T16:15:50.032Z,24.11
2018-07-21T16:16:55.844Z,24.16
2018-07-21T16:18:01.921Z,24.11
2018-07-21T16:19:08.814Z,24.18
2018-07-21T16:20:17.233Z,24.27
2018-07-21T16:21:27.935Z,24.26
2018-07-21T16:22:33.397Z,24.31
2018-07-21T16:23:39.696Z,24.55
2018-07-21T16:24:44.767Z,24.53
2018-07-21T16:25:50.289Z,24.48
2018-07-21T16:26:55.904Z,24.39
2018-07-21T16:28:01.842Z,24.38
2018-07-21T16:29:08.822Z,24.39
2018-07-21T16:30:13.691Z,24.31
2018-07-21T16:31:20.775Z,24.35
2018-07-21T16:32:31.722Z,24.35
2018-07-21T16:33:39.927Z,24.45
2018-07-21T16:34:48.766Z,24.57
2018-07-21T16:35:56.266Z,24.61
2018-07-21T16:37:03.311Z,24.70
2018-07-21T16:38:07.951Z,24.32
2018-07-21T16:39:13.535Z,24.17
2018-07-21T16:40:19.981Z,24.22
2018-07-21T16:41:25.978Z,24.10
2018-07-21T16:42:32.593Z,24.12
2018-07-21T16:43:37.504Z,24.13
2018-07-21T16:44:42.426Z,24.13
2018-07-21T16:45:48.108Z,24.38
2018-07-21T16:46:53.106Z,24.54
2018-07-21T16:47:58.026Z,24.66
2018-07-21T16:49:02.843Z,24.50
2018-07-21T16:50:11.020Z,24.45
2018-07-21T16:51:19.503Z,24.35
2018-07-21T16:52:24.163Z,24.07
2018-07-21T16:53:28.919Z,23.74
2018-07-21T16:54:36.172Z,23.60
2018-07-21T16:55:41.341Z,23.50
2018-07-21T16:56:51.477Z,23.64
2018-07-21T16:57:56.607Z,23.68
2018-07-21T16:59:02.783Z,23.66
2018-07-21T17:00:08.509Z,23.63
2018-07-21T17:01:14.135Z,23.62
2018-07-21T17:02:19.652Z,23.68
2018-07-21T17:03:27.316Z,23.72
2018-07-21T17:04:33.742Z,23.70
2018-07-21T17:05:39.677Z,23.69
2018-07-21T17:06:44.320Z,23.65
2018-07-21T17:07:49.181Z,23.65
2018-07-21T17:08:54.912Z,23.66
2018-07-21T17:10:01.313Z,23.54
2018-07-21T17:11:08.020Z,23.54
2018-07-21T17:12:12.680Z,23.46
2018-07-21T17:13:17.690Z,23.45
2018-07-21T17:14:29.978Z,23.56
2018-07-21T17:15:35.296Z,23.67
2018-07-21T17:16:41.792Z,23.47
2018-07-21T17:17:46.387Z,23.50
2018-07-21T17:18:51.813Z,23.45
2018-07-21T17:19:58.452Z,23.46
2018-07-21T17:21:05.673Z,23.45
2018-07-21T17:22:11.500Z,23.48
2018-07-21T17:23:16.650Z,23.49
2018-07-21T17:24:22.671Z,23.49
2018-07-21T17:25:28.171Z,23.43
2018-07-21T17:26:33.859Z,23.37
2018-07-21T17:27:39.407Z,23.49
2018-07-21T17:28:44.138Z,23.57
2018-07-21T17:29:48.941Z,23.64
2018-07-21T17:30:53.709Z,23.40
2018-07-21T17:31:59.505Z,23.33
2018-07-21T17:33:05.584Z,23.38
2018-07-21T17:34:12.482Z,23.38
2018-07-21T17:35:17.291Z,23.42
2018-07-21T17:36:22.615Z,23.47
2018-07-21T17:37:28.211Z,23.49
2018-07-21T17:38:33.340Z,23.52
2018-07-21T17:39:41.382Z,23.49
2018-07-21T17:40:47.310Z,23.51
2018-07-21T17:41:56.047Z,23.53
2018-07-21T17:43:02.051Z,23.50
2018-07-21T17:44:08.851Z,23.52
2018-07-21T17:45:14.899Z,23.51
2018-07-21T17:46:20.316Z,23.48
2018-07-21T17:47:25.507Z,23.48
2018-07-21T17:48:30.717Z,23.50
2018-07-21T17:49:37.226Z,23.57
2018-07-21T17:50:43.803Z,23.39
2018-07-21T17:51:53.374Z,23.33
2018-07-21T17:53:01.064Z,23.35
2018-07-21T17:54:07.860Z,23.27
2018-07-21T17:58:05.494Z,23.18
2018-07-21T17:59:12.418Z,23.15
2018-07-21T18:00:28.371Z,23.09
2018-07-21T18:03:18.381Z,23.05
2018-07-21T18:07:10.477Z,23.09
2018-07-21T18:08:20.409Z,23.12
2018-07-21T18:15:06.781Z,23.01
2018-07-21T18:17:32.442Z,22.99
2018-07-21T18:32:24.141Z,22.83
2018-07-21T18:34:59.284Z,22.74
2018-07-21T18:40:01.189Z,22.69
2018-07-21T18:41:19.710Z,22.69
2018-07-21T18:42:24.801Z,22.65
2018-07-21T18:43:32.598Z,22.64
2018-07-21T18:46:03.710Z,22.65
2018-07-21T18:47:16.067Z,22.74
2018-07-21T18:48:23.390Z,22.76
2018-07-21T18:49:29.518Z,22.71
2018-07-21T18:53:19.984Z,22.53
2018-07-21T18:54:29.366Z,22.54
2018-07-21T18:55:52.851Z,22.64
2018-07-21T18:58:11.856Z,22.64
2018-07-21T18:59:20.904Z,22.68
2018-07-21T19:00:28.381Z,22.72
2018-07-21T19:01:34.978Z,22.69
2018-07-21T19:02:46.711Z,22.73
2018-07-21T19:03:53.859Z,22.70
2018-07-21T19:05:01.661Z,22.79
2018-07-21T19:07:20.815Z,22.48
2018-07-21T19:08:34.343Z,22.50
2018-07-21T19:09:43.148Z,22.50
2018-07-21T19:10:54.649Z,22.33
2018-07-21T19:13:24.866Z,22.32
2018-07-21T19:14:37.157Z,22.16
2018-07-21T19:15:56.190Z,22.16
2018-07-21T19:17:05.092Z,22.26
2018-07-21T19:18:13.736Z,22.23
2018-07-21T19:19:22.352Z,22.22
2018-07-21T19:20:34.729Z,22.23
2018-07-21T19:21:42.416Z,22.21
2018-07-21T19:22:50.432Z,22.11
2018-07-21T19:23:56.559Z,22.08
2018-07-21T19:25:07.288Z,22.13
2018-07-21T19:29:22.898Z,22.17
2018-07-21T19:30:48.083Z,22.02
2018-07-21T19:32:01.558Z,21.95
2018-07-21T19:34:53.627Z,21.89
2018-07-21T19:44:14.662Z,21.64
2018-07-21T19:45:23.203Z,21.65
2018-07-21T19:49:21.579Z,21.58
2018-07-21T19:50:32.266Z,21.53
2018-07-21T19:51:39.404Z,21.54
2018-07-21T19:52:52.484Z,21.63
2018-07-21T19:54:00.700Z,21.68
2018-07-21T19:55:14.289Z,21.72
2018-07-21T19:56:25.704Z,21.73
2018-07-21T19:57:33.014Z,21.73
2018-07-21T19:58:38.885Z,21.71
2018-07-21T20:01:16.279Z,21.63
2018-07-21T20:02:23.841Z,21.61
2018-07-21T20:03:30.593Z,21.57
2018-07-21T20:10:35.730Z,21.53
2018-07-21T20:32:55.476Z,21.34
2018-07-21T20:34:15.176Z,21.38
2018-07-21T20:35:38.571Z,21.38
2018-07-21T20:36:50.747Z,21.38
2018-07-21T20:38:01.921Z,21.34
2018-07-21T20:39:13.847Z,21.31
2018-07-21T20:40:37.627Z,21.29
2018-07-21T20:43:36.721Z,21.24
2018-07-21T20:46:11.779Z,21.36
2018-07-21T20:48:54.676Z,21.30
2018-07-21T20:51:19.980Z,21.27
2018-07-21T20:52:30.525Z,21.31
2018-07-21T20:53:42.258Z,21.30
2018-07-21T20:54:55.149Z,21.31
2018-07-21T20:57:23.980Z,21.19
2018-07-21T20:58:34.337Z,21.14
2018-07-21T20:59:43.259Z,21.12
2018-07-21T21:00:49.343Z,21.09
2018-07-21T21:02:00.166Z,21.11
2018-07-21T21:03:09.231Z,21.14
2018-07-21T21:04:18.821Z,21.21
2018-07-21T21:05:35.631Z,21.23
2018-07-21T21:09:08.414Z,21.09
2018-07-21T21:11:43.749Z,21.09
2018-07-21T21:15:05.591Z,20.92
2018-07-21T21:16:15.681Z,20.89
2018-07-21T21:17:22.801Z,20.95
2018-07-21T21:19:03.320Z,21.03
2018-07-21T21:20:15.891Z,21.09
2018-07-21T21:23:01.749Z,20.95
2018-07-21T21:25:36.651Z,20.80
2018-07-21T21:29:37.899Z,20.71
2018-07-21T21:30:51.220Z,20.65
2018-07-21T21:32:17.168Z,20.64
2018-07-21T21:36:12.149Z,20.41
2018-07-21T21:38:59.987Z,20.42
2018-07-21T21:41:25.726Z,20.23
2018-07-21T21:43:56.021Z,19.98
2018-07-21T21:45:01.238Z,19.96
2018-07-21T21:46:09.214Z,19.97
2018-07-21T21:47:15.820Z,20.04
2018-07-21T21:48:25.452Z,19.94
2018-07-21T21:49:30.168Z,19.83
2018-07-21T21:50:38.303Z,19.89
2018-07-21T21:51:42.910Z,19.94